createdAt,value
2022-08-04T00:00:13.722Z,100275.02
2022-08-04T00:03:14.747Z,100278.33
2022-08-04T00:06:03.233Z,100279.80
2022-08-04T00:08:40.982Z,100279.00
2022-08-04T00:11:12.023Z,100275.10
2022-08-04T00:14:02.608Z,100276.21
2022-08-04T00:16:38.670Z,100277.14
2022-08-04T00:19:12.258Z,100276.39
2022-08-04T00:21:43.541Z,100277.60
2022-08-04T00:24:13.097Z,100277.58
2022-08-04T00:26:41.623Z,100274.66
2022-08-04T00:29:10.497Z,100277.61
2022-08-04T00:31:56.885Z,100279.01
2022-08-04T00:34:28.361Z,100278.25
2022-08-04T00:36:57.687Z,100277.13
2022-08-04T00:39:26.856Z,100277.69
2022-08-04T00:42:10.689Z,100278.45
2022-08-04T00:45:20.430Z,100281.18
2022-08-04T00:47:54.039Z,100278.77
2022-08-04T00:51:03.482Z,100278.31
2022-08-04T00:54:08.050Z,100276.10
2022-08-04T00:57:00.299Z,100279.09
2022-08-04T00:59:57.740Z,100280.45
2022-08-04T01:02:30.631Z,100274.27
2022-08-04T01:05:05.823Z,100277.63
2022-08-04T01:07:39.785Z,100280.41
2022-08-04T01:10:21.346Z,100280.85
2022-08-04T01:12:49.417Z,100280.13
2022-08-04T01:15:57.166Z,100280.14
2022-08-04T01:18:47.056Z,100288.45
2022-08-04T01:21:29.915Z,100290.80
2022-08-04T01:24:35.098Z,100289.59
2022-08-04T01:27:29.260Z,100288.44
2022-08-04T01:30:00.448Z,100290.15
2022-08-04T01:32:28.467Z,100291.96
2022-08-04T01:35:03.551Z,100289.89
2022-08-04T01:37:49.520Z,100290.69
2022-08-04T01:40:18.023Z,100288.27
2022-08-04T01:42:46.705Z,100288.94
2022-08-04T01:45:15.121Z,100287.27
2022-08-04T01:47:54.025Z,100286.77
2022-08-04T01:50:23.638Z,100291.23
2022-08-04T01:52:54.499Z,100291.75
2022-08-04T01:55:23.360Z,100288.35
2022-08-04T01:57:53.145Z,100288.48
2022-08-04T02:00:28.969Z,100292.73
2022-08-04T02:02:57.469Z,100291.09
2022-08-04T02:05:26.963Z,100292.09
2022-08-04T02:08:22.676Z,100290.23
2022-08-04T02:11:13.017Z,100290.00
2022-08-04T02:14:03.066Z,100290.96
2022-08-04T02:16:52.786Z,100286.08
2022-08-04T02:19:37.713Z,100285.17
2022-08-04T02:22:10.527Z,100288.23
2022-08-04T02:24:44.324Z,100285.14
2022-08-04T02:27:14.287Z,100284.00
2022-08-04T02:29:48.186Z,100283.77
2022-08-04T02:32:28.394Z,100281.64
2022-08-04T02:35:34.340Z,100279.67
2022-08-04T02:38:25.706Z,100279.11
2022-08-04T02:40:59.189Z,100274.29
2022-08-04T02:43:51.520Z,100268.59
2022-08-04T02:46:20.425Z,100264.41
2022-08-04T02:48:49.848Z,100260.65
2022-08-04T02:51:30.165Z,100260.17
2022-08-04T02:53:59.377Z,100257.25
2022-08-04T02:56:31.238Z,100257.24
2022-08-04T02:59:00.437Z,100257.02
2022-08-04T03:01:28.797Z,100258.04
2022-08-04T03:04:25.018Z,100264.50
2022-08-04T03:07:16.902Z,100266.58
2022-08-04T03:09:50.511Z,100267.88
2022-08-04T03:12:59.127Z,100270.67
2022-08-04T03:15:42.327Z,100269.99
2022-08-04T03:18:28.996Z,100274.16
2022-08-04T03:21:51.179Z,100274.48
2022-08-04T03:24:21.557Z,100274.52
2022-08-04T03:27:13.965Z,100273.46
2022-08-04T03:30:12.493Z,100278.78
2022-08-04T03:32:59.905Z,100274.30
2022-08-04T03:35:37.719Z,100275.04
2022-08-04T03:38:35.289Z,100272.17
2022-08-04T03:41:51.346Z,100269.48
2022-08-04T03:44:30.745Z,100271.11
2022-08-04T03:47:50.048Z,100274.63
2022-08-04T03:50:42.964Z,100275.04
2022-08-04T03:53:39.149Z,100277.83
2022-08-04T03:56:25.299Z,100276.88
2022-08-04T03:58:59.287Z,100280.33
2022-08-04T04:02:02.791Z,100281.81
2022-08-04T04:04:38.585Z,100275.55
2022-08-04T04:07:34.135Z,100278.38
2022-08-04T04:10:36.357Z,100275.11
2022-08-04T04:13:16.530Z,100280.99
2022-08-04T04:15:52.240Z,100282.05
2022-08-04T04:18:47.978Z,100278.52
2022-08-04T04:21:22.039Z,100278.65
2022-08-04T04:23:58.986Z,100277.54
2022-08-04T04:26:51.859Z,100279.86
2022-08-04T04:30:04.203Z,100280.15
2022-08-04T04:32:44.401Z,100284.28
2022-08-04T04:35:37.074Z,100287.13
2022-08-04T04:38:06.191Z,100288.89
2022-08-04T04:40:35.199Z,100289.70
2022-08-04T04:43:14.595Z,100289.61
2022-08-04T04:46:07.129Z,100289.14
2022-08-04T04:48:48.778Z,100289.91
2022-08-04T04:51:16.632Z,100284.38
2022-08-04T04:54:18.863Z,100287.06
2022-08-04T04:57:53.969Z,100289.81
2022-08-04T05:00:14.213Z,100294.53
2022-08-04T05:03:18.683Z,100293.96
2022-08-04T05:05:53.139Z,100295.31
2022-08-04T05:08:57.929Z,100299.41
2022-08-04T05:11:50.343Z,100293.62
2022-08-04T05:14:38.595Z,100295.34
2022-08-04T05:17:43.317Z,100291.86
2022-08-04T05:20:15.408Z,100288.66
2022-08-04T05:22:50.518Z,100288.20
2022-08-04T05:25:24.223Z,100288.14
2022-08-04T05:28:00.987Z,100287.93
2022-08-04T05:30:30.955Z,100292.03
2022-08-04T05:33:09.007Z,100293.40
2022-08-04T05:36:16.999Z,100292.15
2022-08-04T05:38:35.730Z,100294.40
2022-08-04T05:41:04.206Z,100297.55
2022-08-04T05:43:32.290Z,100294.70
2022-08-04T05:46:01.135Z,100291.12
2022-08-04T05:48:29.899Z,100292.02
2022-08-04T05:51:00.908Z,100291.31
2022-08-04T05:53:29.733Z,100293.31
2022-08-04T05:56:00.003Z,100291.46
2022-08-04T05:58:30.783Z,100296.17
2022-08-04T06:01:02.305Z,100296.80
2022-08-04T06:03:31.247Z,100291.00
2022-08-04T06:06:00.170Z,100294.21
2022-08-04T06:08:29.725Z,100294.63
2022-08-04T06:11:00.060Z,100297.63
2022-08-04T06:13:49.245Z,100297.58
2022-08-04T06:16:30.108Z,100300.66
2022-08-04T06:20:03.912Z,100300.83
2022-08-04T06:21:53.783Z,100302.25
2022-08-04T06:24:24.535Z,100307.05
2022-08-04T06:26:52.927Z,100304.21
2022-08-04T06:29:36.935Z,100307.34
2022-08-04T06:32:27.591Z,100307.33
2022-08-04T06:35:02.868Z,100300.85
2022-08-04T06:37:43.054Z,100305.30
2022-08-04T06:40:31.146Z,100304.96
2022-08-04T06:43:06.080Z,100303.47
2022-08-04T06:45:36.282Z,100300.52
2022-08-04T06:48:06.620Z,100303.69
2022-08-04T06:51:29.206Z,100304.20
2022-08-04T06:53:26.553Z,100304.59
2022-08-04T06:55:55.130Z,100303.55
2022-08-04T06:58:23.333Z,100303.93
2022-08-04T07:00:51.907Z,100301.09
2022-08-04T07:03:21.671Z,100298.14
2022-08-04T07:05:51.523Z,100296.26
2022-08-04T07:08:20.904Z,100305.98
2022-08-04T07:10:49.686Z,100304.37
2022-08-04T07:13:18.358Z,100305.14
2022-08-04T07:15:48.010Z,100302.89
2022-08-04T07:18:16.588Z,100305.24
2022-08-04T07:20:45.887Z,100305.02
2022-08-04T07:23:17.951Z,100308.34
2022-08-04T07:26:11.110Z,100302.09
2022-08-04T07:28:41.143Z,100307.14
2022-08-04T07:31:31.966Z,100308.00
2022-08-04T07:34:17.459Z,100303.98
2022-08-04T07:36:53.132Z,100300.30
2022-08-04T07:39:28.133Z,100301.45
2022-08-04T07:42:01.507Z,100299.85
2022-08-04T07:44:34.338Z,100294.32
2022-08-04T07:47:04.236Z,100292.69
2022-08-04T07:49:56.204Z,100293.86
2022-08-04T07:52:21.745Z,100290.91
2022-08-04T07:54:51.387Z,100292.09
2022-08-04T07:57:40.393Z,100287.15
2022-08-04T08:00:10.293Z,100291.61
2022-08-04T08:02:46.068Z,100289.59
2022-08-04T08:05:16.928Z,100289.60
2022-08-04T08:07:50.141Z,100294.58
2022-08-04T08:10:22.372Z,100288.36
2022-08-04T08:12:52.378Z,100287.27
2022-08-04T08:15:21.314Z,100288.44
2022-08-04T08:17:57.964Z,100286.64
2022-08-04T08:20:31.464Z,100282.45
2022-08-04T08:23:02.142Z,100280.63
2022-08-04T08:25:31.837Z,100284.86
2022-08-04T08:28:00.557Z,100282.62
2022-08-04T08:30:31.557Z,100281.73
2022-08-04T08:33:01.987Z,100287.25
2022-08-04T08:35:35.881Z,100288.42
2022-08-04T08:38:16.308Z,100285.70
2022-08-04T08:40:51.700Z,100279.05
2022-08-04T08:44:06.557Z,100284.36
2022-08-04T08:47:04.717Z,100287.03
2022-08-04T08:50:02.765Z,100289.52
2022-08-04T08:53:01.024Z,100287.77
2022-08-04T08:55:46.716Z,100286.27
2022-08-04T08:58:17.723Z,100285.27
2022-08-04T09:00:56.558Z,100282.67
2022-08-04T09:03:30.341Z,100286.80
2022-08-04T09:06:24.266Z,100286.30
2022-08-04T09:09:18.280Z,100279.99
2022-08-04T09:12:09.142Z,100283.57
2022-08-04T09:15:03.877Z,100285.00
2022-08-04T09:17:43.566Z,100283.31
2022-08-04T09:20:39.697Z,100279.77
2022-08-04T09:23:16.394Z,100281.48
2022-08-04T09:25:54.513Z,100283.06
2022-08-04T09:28:52.239Z,100283.20
2022-08-04T09:31:17.707Z,100282.04
2022-08-04T09:33:57.502Z,100275.67
2022-08-04T09:36:48.641Z,100269.73
2022-08-04T09:39:58.263Z,100267.23
2022-08-04T09:42:38.607Z,100270.56
2022-08-04T09:45:40.064Z,100267.91
2022-08-04T09:48:15.505Z,100267.66
2022-08-04T09:50:50.014Z,100268.29
2022-08-04T09:53:27.499Z,100265.80
2022-08-04T09:56:03.428Z,100266.54
2022-08-04T09:58:50.753Z,100270.90
2022-08-04T10:01:30.541Z,100264.62
2022-08-04T10:04:03.404Z,100266.13
2022-08-04T10:07:09.243Z,100267.76
2022-08-04T10:10:14.168Z,100266.14
2022-08-04T10:12:56.755Z,100265.88
2022-08-04T10:15:48.914Z,100258.50
2022-08-04T10:18:34.291Z,100262.54
2022-08-04T10:21:15.731Z,100261.42
2022-08-04T10:24:20.227Z,100257.39
2022-08-04T10:27:01.564Z,100252.16
2022-08-04T10:29:43.304Z,100251.88
2022-08-04T10:32:27.865Z,100248.31
2022-08-04T10:35:09.436Z,100246.39
2022-08-04T10:38:03.966Z,100247.66
2022-08-04T10:40:45.724Z,100244.79
2022-08-04T10:43:35.341Z,100244.84
2022-08-04T10:46:26.435Z,100247.74
2022-08-04T10:49:03.981Z,100242.08
2022-08-04T10:51:58.876Z,100240.31
2022-08-04T10:54:43.964Z,100237.46
2022-08-04T10:57:16.576Z,100236.30
2022-08-04T11:00:04.627Z,100230.55
2022-08-04T11:02:48.258Z,100234.81
2022-08-04T11:05:23.801Z,100232.75
2022-08-04T11:08:02.044Z,100233.50
2022-08-04T11:10:35.672Z,100221.64
2022-08-04T11:13:06.750Z,100228.17
2022-08-04T11:15:55.893Z,100226.27
2022-08-04T11:18:34.388Z,100215.74
2022-08-04T11:21:13.533Z,100217.39
2022-08-04T11:23:48.327Z,100213.31
2022-08-04T11:26:20.088Z,100215.48
2022-08-04T11:29:06.877Z,100217.30
2022-08-04T11:31:46.237Z,100213.54
2022-08-04T11:34:23.968Z,100213.48
2022-08-04T11:36:57.583Z,100216.63
2022-08-04T11:39:34.274Z,100213.92
2022-08-04T11:42:28.754Z,100217.04
2022-08-04T11:45:21.123Z,100215.20
2022-08-04T11:47:56.423Z,100215.03
2022-08-04T11:50:24.306Z,100214.31
2022-08-04T11:52:54.284Z,100213.75
2022-08-04T11:55:25.870Z,100205.23
2022-08-04T11:57:54.592Z,100204.73
2022-08-04T12:00:23.103Z,100202.95
2022-08-04T12:03:33.282Z,100200.73
2022-08-04T12:06:11.558Z,100199.92
2022-08-04T12:08:58.116Z,100197.84
2022-08-04T12:11:45.566Z,100200.42
2022-08-04T12:14:20.235Z,100200.85
2022-08-04T12:16:56.356Z,100195.38
2022-08-04T12:19:33.930Z,100199.55
2022-08-04T12:22:28.289Z,100199.23
2022-08-04T12:25:25.150Z,100201.96
2022-08-04T12:28:01.335Z,100193.30
2022-08-04T12:30:58.981Z,100192.84
2022-08-04T12:34:03.424Z,100186.99
2022-08-04T12:36:36.349Z,100189.59
2022-08-04T12:39:17.971Z,100191.13
2022-08-04T12:41:52.284Z,100184.83
2022-08-04T12:44:37.081Z,100185.41
2022-08-04T12:47:27.434Z,100182.61
2022-08-04T12:50:03.898Z,100179.04
2022-08-04T12:55:33.861Z,100177.61
2022-08-04T12:58:03.371Z,100176.03
2022-08-04T13:00:41.256Z,100175.93
2022-08-04T13:03:15.985Z,100173.98
2022-08-04T13:05:45.426Z,100168.05
2022-08-04T13:08:15.453Z,100169.42
2022-08-04T13:10:45.056Z,100163.70
2022-08-04T13:13:25.207Z,100165.55
2022-08-04T13:16:01.085Z,100160.65
2022-08-04T13:18:32.434Z,100155.95
2022-08-04T13:21:21.019Z,100152.42
2022-08-04T13:24:10.024Z,100158.44
2022-08-04T13:27:03.840Z,100159.33
2022-08-04T13:29:58.919Z,100156.28
2022-08-04T13:32:31.622Z,100155.95
2022-08-04T13:35:02.761Z,100153.05
2022-08-04T13:37:39.037Z,100151.55
2022-08-04T13:40:10.375Z,100148.91
2022-08-04T13:42:39.245Z,100149.70
2022-08-04T13:45:09.081Z,100141.20
2022-08-04T13:47:39.897Z,100140.79
2022-08-04T13:50:20.760Z,100142.11
2022-08-04T13:52:51.084Z,100133.44
2022-08-04T13:55:28.177Z,100130.67
2022-08-04T13:58:03.661Z,100130.20
2022-08-04T14:00:50.798Z,100126.45
2022-08-04T14:03:53.987Z,100125.24
2022-08-04T14:06:27.523Z,100126.95
2022-08-04T14:08:58.566Z,100120.05
2022-08-04T14:12:06.720Z,100115.69
2022-08-04T14:14:33.426Z,100119.11
2022-08-04T14:17:03.282Z,100114.75
2022-08-04T14:20:18.617Z,100116.92
2022-08-04T14:22:54.415Z,100117.19
2022-08-04T14:25:35.707Z,100116.26
2022-08-04T14:28:07.222Z,100117.76
2022-08-04T14:30:38.285Z,100115.69
2022-08-04T14:34:01.575Z,100117.38
2022-08-04T14:36:04.451Z,100121.17
2022-08-04T14:39:00.510Z,100121.65
2022-08-04T14:41:44.294Z,100114.42
2022-08-04T14:44:12.663Z,100111.39
2022-08-04T14:46:53.935Z,100102.88
2022-08-04T14:49:22.719Z,100101.09
2022-08-04T14:52:02.995Z,100091.58
2022-08-04T14:54:33.897Z,100093.39
2022-08-04T14:57:06.464Z,100092.49
2022-08-04T15:00:00.511Z,100090.77
2022-08-04T15:02:34.105Z,100098.42
2022-08-04T15:05:55.497Z,100089.69
2022-08-04T15:07:56.130Z,100089.16
2022-08-04T15:10:25.007Z,100088.46
2022-08-04T15:12:54.594Z,100085.05
2022-08-04T15:15:36.432Z,100088.30
2022-08-04T15:18:10.213Z,100081.95
2022-08-04T15:20:43.100Z,100078.68
2022-08-04T15:23:15.041Z,100076.98
2022-08-04T15:25:48.421Z,100080.52
2022-08-04T15:28:18.954Z,100072.75
2022-08-04T15:30:48.567Z,100071.77
2022-08-04T15:33:28.924Z,100068.38
2022-08-04T15:36:43.510Z,100068.30
2022-08-04T15:39:57.944Z,100068.41
2022-08-04T15:42:49.253Z,100068.15
2022-08-04T15:46:41.050Z,100065.35
2022-08-04T15:48:19.139Z,100062.92
2022-08-04T15:51:00.670Z,100058.94
2022-08-04T15:54:03.533Z,100056.23
2022-08-04T15:56:26.556Z,100059.90
2022-08-04T15:58:56.134Z,100055.11
2022-08-04T16:01:25.694Z,100054.63
2022-08-04T16:04:01.207Z,100052.94
2022-08-04T16:06:30.567Z,100051.41
2022-08-04T16:09:01.303Z,100052.80
2022-08-04T16:11:31.532Z,100055.38
2022-08-04T16:14:01.664Z,100052.28
2022-08-04T16:16:44.797Z,100048.95
2022-08-04T16:19:35.359Z,100046.35
2022-08-04T16:22:04.879Z,100044.59
2022-08-04T16:24:42.713Z,100042.16
2022-08-04T16:27:13.876Z,100043.48
2022-08-04T16:29:47.210Z,100043.73
2022-08-04T16:32:20.154Z,100038.96
2022-08-04T16:34:56.025Z,100041.11
2022-08-04T16:37:42.677Z,100041.75
2022-08-04T16:40:36.410Z,100035.02
2022-08-04T16:43:13.793Z,100037.64
2022-08-04T16:45:56.205Z,100035.54
2022-08-04T16:48:33.235Z,100036.33
2022-08-04T16:51:10.031Z,100032.48
2022-08-04T16:54:02.676Z,100029.45
2022-08-04T16:56:35.524Z,100028.44
2022-08-04T16:59:13.867Z,100026.67
2022-08-04T17:01:50.200Z,100025.95
2022-08-04T17:04:18.840Z,100028.02
2022-08-04T17:06:47.483Z,100027.34
2022-08-04T17:09:17.874Z,100025.70
2022-08-04T17:11:50.653Z,100025.14
2022-08-04T17:14:29.589Z,100025.69
2022-08-04T17:17:08.826Z,100022.29
2022-08-04T17:19:40.597Z,100025.05
2022-08-04T17:22:11.120Z,100024.56
2022-08-04T17:24:43.889Z,100029.05
2022-08-04T17:28:08.595Z,100027.06
2022-08-04T17:30:02.899Z,100023.79
2022-08-04T17:32:36.591Z,100024.59
2022-08-04T17:35:09.066Z,100027.55
2022-08-04T17:37:52.591Z,100028.05
2022-08-04T17:40:25.646Z,100028.04
2022-08-04T17:46:30.183Z,100020.13
2022-08-04T17:49:06.974Z,100026.84
2022-08-04T17:52:04.930Z,100020.88
2022-08-04T17:54:40.643Z,100014.95
2022-08-04T17:57:20.618Z,100015.11
2022-08-04T17:59:57.733Z,100015.06
2022-08-04T18:02:35.102Z,100015.02
2022-08-04T18:05:10.024Z,100017.94
2022-08-04T18:08:35.605Z,100020.34
2022-08-04T18:10:44.460Z,100017.45
2022-08-04T18:13:26.946Z,100014.83
2022-08-04T18:16:14.517Z,100016.27
2022-08-04T18:19:21.365Z,100014.98
2022-08-04T18:21:59.787Z,100016.40
2022-08-04T18:24:56.371Z,100015.42
2022-08-04T18:27:25.880Z,100017.08
2022-08-04T18:30:38.500Z,100014.58
2022-08-04T18:33:10.448Z,100020.32
2022-08-04T18:36:34.557Z,100016.81
2022-08-04T18:38:33.252Z,100021.74
2022-08-04T18:41:01.860Z,100017.31
2022-08-04T18:43:40.751Z,100025.75
2022-08-04T18:46:18.830Z,100027.40
2022-08-04T18:48:52.430Z,100029.86
2022-08-04T18:51:31.012Z,100030.74
2022-08-04T18:54:00.534Z,100034.02
2022-08-04T18:56:31.865Z,100036.38
2022-08-04T18:59:10.429Z,100041.92
2022-08-04T19:02:40.834Z,100040.42
2022-08-04T19:09:52.302Z,100047.81
2022-08-04T19:13:59.739Z,100044.80
2022-08-04T19:16:38.373Z,100050.44
2022-08-04T19:32:16.411Z,100053.38
2022-08-04T19:34:46.689Z,100051.88
2022-08-04T19:37:56.856Z,100055.96
2022-08-04T19:40:10.093Z,100054.43
2022-08-04T19:42:38.897Z,100059.03
2022-08-04T19:45:10.043Z,100057.58
2022-08-04T19:48:17.145Z,100054.77
2022-08-04T19:50:33.853Z,100059.27
2022-08-04T19:53:01.946Z,100056.75
2022-08-04T19:55:50.066Z,100057.49
2022-08-04T20:01:28.657Z,100060.69
2022-08-04T20:04:10.126Z,100062.65
2022-08-04T20:06:39.253Z,100055.70
2022-08-04T20:09:16.971Z,100057.50
2022-08-04T20:11:56.415Z,100063.47
2022-08-04T20:14:32.126Z,100058.26
2022-08-04T20:17:02.749Z,100061.17
2022-08-04T20:19:30.847Z,100060.77
2022-08-04T20:21:58.863Z,100064.44
2022-08-04T20:24:39.071Z,100064.36
2022-08-04T20:27:17.375Z,100061.65
2022-08-04T20:29:49.309Z,100059.05
2022-08-04T20:32:20.073Z,100057.23
2022-08-04T20:34:52.631Z,100054.36
2022-08-04T20:37:24.758Z,100054.11
2022-08-04T20:39:56.874Z,100054.10
2022-08-04T20:42:33.940Z,100053.61
2022-08-04T20:45:04.083Z,100055.23
2022-08-04T20:47:35.913Z,100056.11
2022-08-04T20:50:05.713Z,100058.63
2022-08-04T20:52:38.081Z,100062.61
2022-08-04T20:55:07.201Z,100063.16
2022-08-04T20:57:47.687Z,100061.39
2022-08-04T21:00:17.606Z,100066.23
2022-08-04T21:02:54.757Z,100062.29
2022-08-04T21:05:23.603Z,100066.43
2022-08-04T21:07:57.131Z,100064.71
2022-08-04T21:10:25.802Z,100069.23
2022-08-04T21:12:54.687Z,100067.66
2022-08-04T21:15:30.906Z,100069.52
2022-08-04T21:18:14.424Z,100072.09
2022-08-04T21:20:45.355Z,100069.06
2022-08-04T21:23:16.492Z,100069.77
2022-08-04T21:28:34.892Z,100073.73
2022-08-04T21:31:11.372Z,100073.29
2022-08-04T21:33:52.130Z,100073.98
2022-08-04T21:36:20.757Z,100072.34
2022-08-04T21:38:51.599Z,100069.96
2022-08-04T21:41:24.363Z,100072.67
2022-08-04T21:43:53.049Z,100073.52
2022-08-04T21:46:21.385Z,100073.66
2022-08-04T21:48:49.612Z,100070.71
2022-08-04T21:51:56.999Z,100069.03
2022-08-04T21:54:14.988Z,100068.20
2022-08-04T21:56:50.960Z,100069.45
2022-08-04T21:59:23.607Z,100066.42
2022-08-04T22:02:00.843Z,100063.80
2022-08-04T22:04:29.671Z,100069.11
2022-08-04T22:07:03.046Z,100067.70
2022-08-04T22:09:38.869Z,100062.98
2022-08-04T22:12:11.980Z,100065.29
2022-08-04T22:14:40.991Z,100067.28
2022-08-04T22:17:13.842Z,100064.73
2022-08-04T22:19:54.968Z,100060.85
2022-08-04T22:22:29.004Z,100060.08
2022-08-04T22:25:12.358Z,100059.32
2022-08-04T22:28:00.796Z,100053.76
2022-08-04T22:30:36.968Z,100056.61
2022-08-04T22:33:07.986Z,100054.39
2022-08-04T22:35:48.859Z,100058.72
2022-08-04T22:38:24.164Z,100059.38
2022-08-04T22:40:57.817Z,100060.48
2022-08-04T22:43:31.799Z,100060.34
2022-08-04T22:46:07.311Z,100055.41
2022-08-04T22:48:37.163Z,100056.65
2022-08-04T22:51:08.098Z,100058.73
2022-08-04T22:53:36.672Z,100056.90
2022-08-04T22:56:10.271Z,100055.23
2022-08-04T22:58:44.783Z,100056.48
2022-08-04T23:01:15.777Z,100057.02
2022-08-04T23:03:50.998Z,100057.05
2022-08-04T23:06:28.402Z,100054.23
2022-08-04T23:08:57.895Z,100056.55
2022-08-04T23:11:34.647Z,100049.38
2022-08-04T23:14:04.971Z,100052.98
2022-08-04T23:16:40.859Z,100050.82
2022-08-04T23:19:15.447Z,100050.62
2022-08-04T23:21:47.667Z,100047.20
2022-08-04T23:24:29.699Z,100047.57
2022-08-04T23:26:59.227Z,100047.11
2022-08-04T23:29:27.744Z,100042.52
2022-08-04T23:32:15.620Z,100045.55
2022-08-04T23:34:48.257Z,100039.98
2022-08-04T23:37:16.308Z,100040.17
2022-08-04T23:40:15.590Z,100036.31
2022-08-04T23:42:33.458Z,100036.63
2022-08-04T23:45:03.220Z,100041.76
2022-08-04T23:48:16.556Z,100038.65
2022-08-04T23:50:19.083Z,100039.91
2022-08-04T23:52:49.464Z,100038.57
2022-08-04T23:55:19.188Z,100036.99
2022-08-04T23:58:17.022Z,100034.27
